Time;durP1;ratioP1;P1;durP2;ratioP2;P2;SDS_P1;SDS_P2;PMS_P1;PMS_P2;Temp;Humidity;BMP_temperature;BMP_pressure;BME280_temperature;BME280_humidity;BME280_pressure;Samples;Min_cycle;Max_cycle;Signal;HPM_P1;HPM_P2
2022/12/24 00:00:56;;;;;;;;;;;10.70;88.40;;;;;;5004858;28;19925;-82
2022/12/24 00:03:21;;;;;;;;;;;10.70;88.70;;;;;;5003146;28;20294;-81
2022/12/24 00:05:46;;;;;;;;;;;10.60;88.90;;;;;;4999898;28;19921;-82
2022/12/24 00:08:12;;;;;;;;;;;10.60;88.60;;;;;;5001782;28;19914;-82
2022/12/24 00:10:37;;;;;;;;;;;10.60;89.00;;;;;;5003347;28;19932;-83
2022/12/24 00:13:03;;;;;;;;;;;10.60;89.30;;;;;;5002480;28;19918;-82
2022/12/24 00:15:28;;;;;;;;;;;10.60;89.00;;;;;;5006235;28;19961;-82
2022/12/24 00:17:53;;;;;;;;;;;10.60;89.00;;;;;;5003947;28;19917;-82
2022/12/24 00:20:19;;;;;;;;;;;10.50;89.20;;;;;;5004661;28;19921;-81
2022/12/24 00:22:44;;;;;;;;;;;10.60;89.00;;;;;;5003984;28;19917;-81
2022/12/24 00:25:10;;;;;;;;;;;10.60;89.00;;;;;;5008954;28;19948;-81
2022/12/24 00:27:36;;;;;;;;;;;10.60;88.20;;;;;;5005487;28;19921;-81
2022/12/24 00:30:01;;;;;;;;;;;10.60;88.00;;;;;;5005432;28;20403;-82
2022/12/24 00:32:27;;;;;;;;;;;10.60;88.20;;;;;;5001075;28;19973;-81
2022/12/24 00:34:52;;;;;;;;;;;10.60;87.70;;;;;;5003740;28;19920;-81
2022/12/24 00:37:18;;;;;;;;;;;10.60;87.70;;;;;;5007240;28;19992;-82
2022/12/24 00:39:43;;;;;;;;;;;10.70;87.80;;;;;;5006993;28;20055;-81
2022/12/24 00:42:09;;;;;;;;;;;10.60;87.20;;;;;;5003869;28;20267;-82
2022/12/24 00:44:34;;;;;;;;;;;10.60;87.10;;;;;;5005929;28;20378;-82
2022/12/24 00:46:59;;;;;;;;;;;10.70;87.20;;;;;;5004124;28;20379;-83
2022/12/24 00:49:25;;;;;;;;;;;10.60;87.20;;;;;;5003105;28;19921;-81
2022/12/24 00:51:50;;;;;;;;;;;10.60;87.50;;;;;;5011210;28;19920;-82
2022/12/24 00:54:16;;;;;;;;;;;10.60;87.40;;;;;;5010046;28;19933;-82
2022/12/24 00:56:41;;;;;;;;;;;10.60;87.00;;;;;;5015966;28;19917;-82
2022/12/24 00:59:07;;;;;;;;;;;10.60;87.10;;;;;;5004575;28;19957;-82
2022/12/24 01:01:34;;;;;;;;;;;10.60;86.90;;;;;;5006227;28;19922;-82
2022/12/24 01:06:44;;;;;;;;;;;10.70;86.20;;;;;;5005654;28;20385;-82
2022/12/24 01:09:09;;;;;;;;;;;10.60;85.90;;;;;;5003253;28;19918;-82
2022/12/24 01:11:35;;;;;;;;;;;10.60;86.30;;;;;;5006728;28;20387;-83
2022/12/24 01:14:00;;;;;;;;;;;10.60;85.50;;;;;;5006620;28;19917;-81
2022/12/24 01:16:26;;;;;;;;;;;10.60;85.90;;;;;;5017365;28;19920;-80
2022/12/24 01:18:51;;;;;;;;;;;10.50;86.40;;;;;;5011382;28;19952;-81
2022/12/24 01:21:17;;;;;;;;;;;10.60;85.50;;;;;;5003688;28;19925;-81
2022/12/24 01:23:43;;;;;;;;;;;10.50;85.40;;;;;;5024545;28;19913;-81
2022/12/24 01:26:08;;;;;;;;;;;10.60;85.20;;;;;;5010323;28;20048;-82
2022/12/24 01:28:34;;;;;;;;;;;10.60;85.70;;;;;;5015536;28;19913;-82
2022/12/24 01:30:59;;;;;;;;;;;10.60;85.60;;;;;;5011881;28;20014;-82
2022/12/24 01:33:27;;;;;;;;;;;10.60;85.70;;;;;;5010904;28;19929;-82
2022/12/24 01:35:52;;;;;;;;;;;10.50;85.60;;;;;;5010481;28;19967;-81
2022/12/24 01:38:18;;;;;;;;;;;10.50;86.10;;;;;;5006582;28;20015;-82
2022/12/24 01:43:30;;;;;;;;;;;10.50;85.60;;;;;;5019516;28;20299;-82
2022/12/24 01:45:57;;;;;;;;;;;10.50;85.80;;;;;;5011539;28;19920;-82
2022/12/24 01:48:37;;;;;;;;;;;10.50;86.20;;;;;;5007284;28;20371;-82
2022/12/24 01:51:07;;;;;;;;;;;10.50;85.70;;;;;;5007387;28;19918;-82
2022/12/24 01:53:34;;;;;;;;;;;10.50;86.30;;;;;;5006668;28;20307;-81
2022/12/24 01:56:00;;;;;;;;;;;10.50;86.00;;;;;;5011910;28;19910;-82
2022/12/24 01:58:26;;;;;;;;;;;10.50;86.30;;;;;;5012583;28;19918;-82
2022/12/24 02:00:51;;;;;;;;;;;10.40;86.20;;;;;;4999010;28;20382;-81
2022/12/24 02:03:17;;;;;;;;;;;10.40;86.60;;;;;;4647707;23;21412;-85
2022/12/24 02:05:46;;;;;;;;;;;10.40;86.00;;;;;;5019108;28;19920;-85
2022/12/24 02:08:11;;;;;;;;;;;10.40;86.50;;;;;;5026345;28;19913;-85
2022/12/24 02:10:40;;;;;;;;;;;10.40;86.80;;;;;;5030534;28;20268;-85
2022/12/24 02:13:06;;;;;;;;;;;10.30;86.50;;;;;;5022619;23;19961;-80
2022/12/24 02:15:51;;;;;;;;;;;10.40;86.20;;;;;;4986157;28;19996;-80
2022/12/24 02:18:25;;;;;;;;;;;10.50;85.50;;;;;;4980469;28;19918;-81
2022/12/24 02:21:05;;;;;;;;;;;10.40;86.00;;;;;;4983659;28;19914;-81
2022/12/24 02:23:56;;;;;;;;;;;10.40;86.20;;;;;;4979351;28;19921;-81
2022/12/24 02:26:30;;;;;;;;;;;10.40;85.50;;;;;;4986634;28;19921;-81
2022/12/24 02:29:03;;;;;;;;;;;10.50;85.80;;;;;;4973950;28;21261;-82
2022/12/24 02:31:33;;;;;;;;;;;10.40;85.90;;;;;;4987611;28;20014;-81
2022/12/24 02:34:02;;;;;;;;;;;10.40;85.90;;;;;;4988197;28;19937;-81
2022/12/24 02:36:33;;;;;;;;;;;10.40;85.90;;;;;;4988678;28;19914;-81
2022/12/24 02:39:04;;;;;;;;;;;10.40;85.90;;;;;;4984339;28;19917;-82
2022/12/24 02:44:19;;;;;;;;;;;10.30;85.90;;;;;;4991313;28;20012;-80
2022/12/24 02:46:45;;;;;;;;;;;10.30;86.10;;;;;;4978112;28;19920;-80
2022/12/24 02:49:12;;;;;;;;;;;10.30;85.70;;;;;;4983188;28;20056;-81
2022/12/24 02:51:37;;;;;;;;;;;10.30;85.90;;;;;;4989497;28;19921;-81
2022/12/24 02:54:03;;;;;;;;;;;10.10;86.30;;;;;;4980599;28;19918;-81
2022/12/24 02:56:28;;;;;;;;;;;10.10;86.20;;;;;;4997959;28;20274;-81
2022/12/24 02:58:57;;;;;;;;;;;10.10;86.60;;;;;;4987192;28;20896;-81
2022/12/24 03:01:25;;;;;;;;;;;10.10;86.70;;;;;;4985734;28;20448;-82
2022/12/24 03:04:09;;;;;;;;;;;10.10;86.30;;;;;;4984325;28;19921;-82
2022/12/24 03:06:50;;;;;;;;;;;10.00;86.60;;;;;;4996602;28;20012;-80
2022/12/24 03:09:37;;;;;;;;;;;10.10;86.00;;;;;;4980272;28;19953;-81
2022/12/24 03:12:05;;;;;;;;;;;10.10;86.20;;;;;;4976820;28;20333;-81
2022/12/24 03:14:33;;;;;;;;;;;10.00;86.10;;;;;;5002838;28;19917;-83
2022/12/24 03:17:00;;;;;;;;;;;10.10;86.20;;;;;;4989130;28;20734;-81
2022/12/24 03:19:26;;;;;;;;;;;10.10;86.30;;;;;;4983642;28;19914;-80
2022/12/24 03:21:53;;;;;;;;;;;10.10;86.60;;;;;;4983913;28;19922;-81
2022/12/24 03:24:19;;;;;;;;;;;10.10;86.70;;;;;;4982283;28;19914;-82
2022/12/24 03:26:45;;;;;;;;;;;10.10;87.10;;;;;;4987955;28;19929;-81
2022/12/24 03:29:11;;;;;;;;;;;10.10;87.10;;;;;;4980502;28;19913;-80
2022/12/24 03:31:44;;;;;;;;;;;10.10;87.20;;;;;;4986330;28;19914;-81
2022/12/24 03:34:10;;;;;;;;;;;10.10;87.00;;;;;;4986033;28;19961;-81
2022/12/24 03:36:36;;;;;;;;;;;10.10;86.90;;;;;;4979786;28;19941;-81
2022/12/24 03:39:02;;;;;;;;;;;10.20;87.10;;;;;;4981956;28;20336;-82
2022/12/24 03:41:27;;;;;;;;;;;10.10;87.20;;;;;;4977095;28;20341;-81
2022/12/24 03:43:53;;;;;;;;;;;10.10;87.20;;;;;;4985066;28;20337;-82
2022/12/24 03:46:18;;;;;;;;;;;10.30;86.80;;;;;;5002020;28;19919;-82
2022/12/24 03:48:44;;;;;;;;;;;10.30;86.90;;;;;;4980945;28;20310;-81
2022/12/24 03:51:22;;;;;;;;;;;10.40;86.50;;;;;;4981486;28;20348;-82
2022/12/24 03:53:48;;;;;;;;;;;10.50;86.70;;;;;;4980000;28;19984;-82
2022/12/24 03:56:13;;;;;;;;;;;10.40;86.60;;;;;;4985977;28;19922;-82
2022/12/24 03:58:39;;;;;;;;;;;10.30;86.90;;;;;;4989291;28;19996;-81
2022/12/24 04:01:04;;;;;;;;;;;10.30;87.20;;;;;;4986326;28;20378;-81
2022/12/24 04:03:30;;;;;;;;;;;10.30;87.10;;;;;;5000380;28;20016;-82
2022/12/24 04:06:16;;;;;;;;;;;10.30;87.10;;;;;;4988827;28;19914;-82
2022/12/24 04:08:42;;;;;;;;;;;10.30;87.00;;;;;;4975082;28;19980;-82
2022/12/24 04:11:09;;;;;;;;;;;10.40;86.90;;;;;;4981072;28;20313;-83
2022/12/24 04:13:35;;;;;;;;;;;10.30;87.10;;;;;;4983396;28;19973;-81
2022/12/24 04:16:02;;;;;;;;;;;10.30;87.00;;;;;;4992086;28;19941;-82
2022/12/24 04:18:27;;;;;;;;;;;10.30;87.20;;;;;;4978581;28;19917;-81
2022/12/24 04:20:53;;;;;;;;;;;10.20;87.40;;;;;;4984681;28;19918;-81
2022/12/24 04:23:18;;;;;;;;;;;10.20;87.60;;;;;;4980306;28;20293;-81
2022/12/24 04:25:44;;;;;;;;;;;10.30;87.30;;;;;;4989270;28;19925;-81
2022/12/24 04:28:09;;;;;;;;;;;10.20;87.40;;;;;;4998535;28;20369;-81
2022/12/24 04:30:37;;;;;;;;;;;10.20;87.70;;;;;;5007879;28;19918;-80
2022/12/24 04:33:02;;;;;;;;;;;10.30;87.40;;;;;;4986068;28;19965;-81
2022/12/24 04:35:28;;;;;;;;;;;10.20;87.60;;;;;;4979478;28;19954;-80
2022/12/24 04:37:53;;;;;;;;;;;10.10;87.90;;;;;;4976487;28;19926;-80
2022/12/24 04:40:18;;;;;;;;;;;10.20;87.80;;;;;;4981469;28;19910;-80
2022/12/24 04:42:44;;;;;;;;;;;10.10;88.20;;;;;;4976819;28;19918;-80
2022/12/24 04:45:09;;;;;;;;;;;10.10;88.10;;;;;;4990078;28;19917;-81
2022/12/24 04:47:35;;;;;;;;;;;10.10;88.20;;;;;;4977822;28;20413;-81
2022/12/24 04:50:00;;;;;;;;;;;10.10;88.30;;;;;;4984394;28;20340;-80
2022/12/24 04:52:26;;;;;;;;;;;10.10;88.60;;;;;;4987147;28;19914;-80
2022/12/24 04:54:51;;;;;;;;;;;10.10;88.50;;;;;;4987596;28;19914;-81
2022/12/24 04:57:17;;;;;;;;;;;10.10;88.50;;;;;;4985196;28;20033;-82
2022/12/24 04:59:42;;;;;;;;;;;10.20;88.40;;;;;;4988966;28;19922;-82
2022/12/24 05:02:08;;;;;;;;;;;10.30;88.40;;;;;;4986177;28;20283;-80
2022/12/24 05:04:34;;;;;;;;;;;10.30;88.20;;;;;;4990932;28;20012;-81
2022/12/24 05:06:59;;;;;;;;;;;10.30;88.30;;;;;;4988185;28;19911;-81
2022/12/24 05:09:25;;;;;;;;;;;10.30;88.40;;;;;;5013123;28;19925;-80
2022/12/24 05:11:50;;;;;;;;;;;10.30;88.80;;;;;;5013133;28;19924;-79
2022/12/24 05:14:16;;;;;;;;;;;10.30;88.90;;;;;;5009390;28;19929;-81
2022/12/24 05:16:42;;;;;;;;;;;10.30;88.90;;;;;;5003792;28;20393;-82
2022/12/24 05:19:08;;;;;;;;;;;10.30;88.90;;;;;;4985940;28;19910;-82
2022/12/24 05:21:33;;;;;;;;;;;10.20;88.90;;;;;;4986319;28;20333;-80
2022/12/24 05:26:45;;;;;;;;;;;10.30;89.00;;;;;;4989616;28;19916;-80
2022/12/24 05:29:13;;;;;;;;;;;10.30;88.80;;;;;;4985031;28;19949;-82
2022/12/24 05:31:39;;;;;;;;;;;10.30;88.90;;;;;;4979281;28;20012;-82
2022/12/24 05:34:05;;;;;;;;;;;10.30;88.80;;;;;;4983151;28;19914;-80
2022/12/24 05:36:31;;;;;;;;;;;10.40;88.90;;;;;;4985822;28;19910;-83
2022/12/24 05:38:57;;;;;;;;;;;10.40;88.70;;;;;;4976972;28;20013;-82
2022/12/24 05:41:22;;;;;;;;;;;10.40;88.80;;;;;;4991484;28;19910;-82
2022/12/24 05:43:48;;;;;;;;;;;10.30;88.80;;;;;;4983217;28;20306;-81
2022/12/24 05:46:15;;;;;;;;;;;10.30;89.00;;;;;;4988251;28;20378;-80
2022/12/24 05:48:40;;;;;;;;;;;10.30;88.90;;;;;;4986592;28;19910;-83
2022/12/24 05:51:07;;;;;;;;;;;10.40;88.80;;;;;;5002906;28;19940;-82
2022/12/24 05:53:33;;;;;;;;;;;10.40;88.70;;;;;;4989940;28;19914;-81
2022/12/24 05:56:02;;;;;;;;;;;10.30;88.50;;;;;;5002666;28;19918;-81
2022/12/24 05:58:27;;;;;;;;;;;10.40;88.80;;;;;;4992423;28;20045;-82
2022/12/24 06:00:53;;;;;;;;;;;10.40;89.30;;;;;;4985766;28;20378;-81
2022/12/24 06:03:18;;;;;;;;;;;10.40;89.00;;;;;;4984867;28;20325;-79
2022/12/24 06:05:44;;;;;;;;;;;10.40;89.20;;;;;;4987208;28;20017;-83
2022/12/24 06:08:09;;;;;;;;;;;10.30;89.10;;;;;;4994554;28;19910;-82
2022/12/24 06:10:35;;;;;;;;;;;10.30;89.10;;;;;;5004325;28;19922;-82
2022/12/24 06:13:00;;;;;;;;;;;10.30;89.20;;;;;;4981240;28;19968;-82
2022/12/24 06:15:26;;;;;;;;;;;10.30;89.20;;;;;;4982238;28;20409;-82
2022/12/24 06:17:51;;;;;;;;;;;10.30;89.20;;;;;;5004451;28;20009;-81
2022/12/24 06:20:17;;;;;;;;;;;10.30;89.20;;;;;;4979693;28;19914;-80
2022/12/24 06:22:42;;;;;;;;;;;10.30;88.90;;;;;;5019097;28;20367;-81
2022/12/24 06:25:08;;;;;;;;;;;10.40;88.90;;;;;;4985936;28;19969;-82
2022/12/24 06:27:33;;;;;;;;;;;10.40;88.60;;;;;;4983087;28;19917;-81
2022/12/24 06:29:58;;;;;;;;;;;10.40;88.70;;;;;;4986999;28;19944;-83
2022/12/24 06:32:24;;;;;;;;;;;10.40;88.70;;;;;;4984354;28;20037;-83
2022/12/24 06:34:49;;;;;;;;;;;10.40;88.70;;;;;;4980723;28;20381;-82
2022/12/24 06:37:18;;;;;;;;;;;10.40;88.60;;;;;;4988216;28;19938;-85
2022/12/24 06:39:44;;;;;;;;;;;10.50;88.60;;;;;;4980303;28;19924;-80
2022/12/24 06:42:10;;;;;;;;;;;10.50;88.40;;;;;;4984973;28;20004;-82
2022/12/24 06:44:36;;;;;;;;;;;10.40;88.30;;;;;;4981510;28;20429;-84
2022/12/24 06:47:01;;;;;;;;;;;10.40;88.30;;;;;;4979968;28;19921;-84
2022/12/24 06:49:27;;;;;;;;;;;10.40;88.30;;;;;;4991434;28;19920;-83
2022/12/24 06:51:52;;;;;;;;;;;10.50;88.20;;;;;;4993909;28;19936;-84
2022/12/24 06:54:18;;;;;;;;;;;10.50;88.40;;;;;;4987443;28;19967;-83
2022/12/24 06:56:43;;;;;;;;;;;10.40;88.30;;;;;;4984413;28;19917;-82
2022/12/24 06:59:09;;;;;;;;;;;10.40;88.20;;;;;;4982515;28;19922;-83
2022/12/24 07:01:34;;;;;;;;;;;10.40;88.30;;;;;;4982924;28;19921;-83
2022/12/24 07:03:59;;;;;;;;;;;10.30;88.30;;;;;;4986031;28;20009;-83
2022/12/24 07:06:26;;;;;;;;;;;10.30;88.50;;;;;;4982123;28;19918;-83
2022/12/24 07:08:52;;;;;;;;;;;10.20;88.60;;;;;;4991900;28;20287;-84
2022/12/24 07:11:17;;;;;;;;;;;10.20;88.70;;;;;;4989406;28;19918;-83
2022/12/24 07:13:43;;;;;;;;;;;10.20;88.70;;;;;;4986938;28;19929;-83
2022/12/24 07:16:09;;;;;;;;;;;10.20;88.90;;;;;;4991427;28;19918;-83
2022/12/24 07:18:34;;;;;;;;;;;10.20;88.70;;;;;;4988933;28;19914;-82
2022/12/24 07:21:01;;;;;;;;;;;10.30;88.50;;;;;;4986970;28;19929;-82
2022/12/24 07:23:26;;;;;;;;;;;10.30;88.10;;;;;;4987785;28;19917;-83
2022/12/24 07:25:52;;;;;;;;;;;10.30;88.30;;;;;;4988358;28;19952;-83
2022/12/24 07:28:17;;;;;;;;;;;10.30;88.30;;;;;;4995288;28;19914;-83
2022/12/24 07:30:43;;;;;;;;;;;10.20;88.40;;;;;;4988792;28;20026;-82
2022/12/24 07:33:08;;;;;;;;;;;10.30;88.40;;;;;;4979271;28;19921;-83
2022/12/24 07:35:34;;;;;;;;;;;10.30;88.00;;;;;;4991022;28;19915;-83
2022/12/24 07:38:00;;;;;;;;;;;10.30;87.70;;;;;;4982900;28;19922;-80
2022/12/24 07:40:25;;;;;;;;;;;10.30;88.00;;;;;;4974731;28;19925;-81
2022/12/24 07:42:51;;;;;;;;;;;10.30;88.10;;;;;;4986719;28;20328;-82
2022/12/24 07:45:16;;;;;;;;;;;10.30;88.10;;;;;;4989166;28;19909;-82
2022/12/24 07:47:42;;;;;;;;;;;10.30;87.90;;;;;;4980514;28;20000;-86
2022/12/24 07:50:08;;;;;;;;;;;10.30;87.70;;;;;;4986213;28;19941;-84
2022/12/24 07:52:33;;;;;;;;;;;10.40;87.60;;;;;;4981728;28;19918;-83
2022/12/24 07:54:59;;;;;;;;;;;10.30;87.30;;;;;;4993901;28;19914;-84
2022/12/24 07:57:24;;;;;;;;;;;10.30;87.40;;;;;;5010382;28;19922;-84
2022/12/24 07:59:49;;;;;;;;;;;10.30;87.60;;;;;;4988071;28;20429;-83
2022/12/24 08:02:15;;;;;;;;;;;10.30;87.20;;;;;;4982348;28;20000;-83
2022/12/24 08:04:40;;;;;;;;;;;10.40;87.50;;;;;;5013620;23;19980;-80
2022/12/24 08:07:06;;;;;;;;;;;10.40;87.20;;;;;;5004919;28;19921;-77
2022/12/24 08:09:32;;;;;;;;;;;10.50;87.20;;;;;;5004267;28;20376;-77
2022/12/24 08:11:58;;;;;;;;;;;10.50;86.90;;;;;;5003114;28;19914;-76
2022/12/24 08:14:23;;;;;;;;;;;10.40;87.10;;;;;;5006535;28;19913;-75
2022/12/24 08:16:49;;;;;;;;;;;10.50;86.30;;;;;;4992674;28;19953;-76
2022/12/24 08:19:14;;;;;;;;;;;10.60;86.40;;;;;;5003527;28;20432;-75
2022/12/24 08:21:39;;;;;;;;;;;10.50;86.50;;;;;;5004047;28;19913;-75
2022/12/24 08:24:05;;;;;;;;;;;10.50;86.80;;;;;;5005240;28;19921;-75
2022/12/24 08:26:30;;;;;;;;;;;10.50;86.40;;;;;;4999200;28;19910;-76
2022/12/24 08:28:56;;;;;;;;;;;10.50;86.60;;;;;;5009782;28;19917;-76
2022/12/24 08:31:22;;;;;;;;;;;10.50;86.50;;;;;;5010992;28;19975;-76
2022/12/24 08:33:47;;;;;;;;;;;10.60;86.60;;;;;;5017063;28;19960;-76
2022/12/24 08:36:12;;;;;;;;;;;10.50;86.50;;;;;;5005166;28;19910;-77
2022/12/24 08:38:38;;;;;;;;;;;10.60;86.30;;;;;;5004807;28;19914;-76
2022/12/24 08:41:03;;;;;;;;;;;10.60;86.20;;;;;;5027964;28;19920;-75
2022/12/24 08:43:29;;;;;;;;;;;10.60;86.30;;;;;;5017683;28;20005;-76
2022/12/24 08:45:54;;;;;;;;;;;10.60;86.20;;;;;;5012189;28;19910;-77
2022/12/24 08:48:20;;;;;;;;;;;10.60;86.40;;;;;;5008374;28;20393;-77
2022/12/24 08:50:46;;;;;;;;;;;10.60;86.30;;;;;;5025426;28;19928;-77
2022/12/24 08:53:11;;;;;;;;;;;10.70;86.30;;;;;;5012253;28;20380;-78
2022/12/24 08:55:37;;;;;;;;;;;10.70;86.50;;;;;;5011221;28;19918;-77
2022/12/24 08:58:02;;;;;;;;;;;10.60;86.30;;;;;;5011492;28;19916;-76
2022/12/24 09:00:28;;;;;;;;;;;10.60;86.60;;;;;;5013047;28;20012;-77
2022/12/24 09:02:54;;;;;;;;;;;10.60;86.30;;;;;;5008287;28;19916;-77
2022/12/24 09:05:20;;;;;;;;;;;10.60;86.20;;;;;;5042817;28;19943;-77
2022/12/24 09:07:45;;;;;;;;;;;10.60;86.20;;;;;;5042047;28;19921;-76
2022/12/24 09:10:11;;;;;;;;;;;10.70;86.40;;;;;;5010057;28;19921;-76
2022/12/24 09:12:37;;;;;;;;;;;10.70;86.00;;;;;;5014971;28;20315;-76
2022/12/24 09:15:02;;;;;;;;;;;10.80;86.10;;;;;;5024692;28;19925;-77
2022/12/24 09:17:28;;;;;;;;;;;10.80;85.90;;;;;;5028909;28;20335;-77
2022/12/24 09:19:53;;;;;;;;;;;10.80;85.90;;;;;;5007033;28;20280;-76
2022/12/24 09:22:19;;;;;;;;;;;10.70;86.10;;;;;;5042256;28;20023;-76
2022/12/24 09:24:44;;;;;;;;;;;10.80;86.00;;;;;;5035603;28;20171;-76
2022/12/24 09:27:09;;;;;;;;;;;10.80;85.80;;;;;;5029940;28;19963;-76
2022/12/24 09:29:35;;;;;;;;;;;10.80;86.10;;;;;;5031094;28;19990;-77
2022/12/24 09:32:01;;;;;;;;;;;10.80;86.10;;;;;;5031355;28;19944;-77
2022/12/24 09:34:26;;;;;;;;;;;10.80;86.20;;;;;;5028620;28;20047;-76
2022/12/24 09:36:53;;;;;;;;;;;10.80;85.80;;;;;;5030676;28;19913;-76
2022/12/24 09:39:19;;;;;;;;;;;10.90;85.70;;;;;;5030545;28;19909;-76
2022/12/24 09:41:52;;;;;;;;;;;10.90;85.50;;;;;;5030791;28;19924;-74
2022/12/24 09:44:36;;;;;;;;;;;11.00;85.40;;;;;;5027724;28;19952;-76
2022/12/24 09:47:07;;;;;;;;;;;11.00;85.40;;;;;;5030771;28;19920;-77
2022/12/24 09:49:41;;;;;;;;;;;11.00;85.30;;;;;;5031155;28;19913;-76
2022/12/24 09:52:08;;;;;;;;;;;11.00;85.70;;;;;;5025189;28;19921;-76
2022/12/24 09:54:36;;;;;;;;;;;11.00;85.10;;;;;;5028499;28;19913;-76
2022/12/24 09:57:05;;;;;;;;;;;11.00;85.70;;;;;;5030442;28;19913;-76
2022/12/24 09:59:42;;;;;;;;;;;11.00;85.60;;;;;;5027438;28;19949;-76
2022/12/24 10:02:13;;;;;;;;;;;11.00;85.70;;;;;;5027070;28;19913;-76
2022/12/24 10:04:38;;;;;;;;;;;11.10;85.20;;;;;;5028754;28;19932;-75
2022/12/24 10:07:03;;;;;;;;;;;11.10;85.20;;;;;;5028676;28;19925;-76
2022/12/24 10:09:58;;;;;;;;;;;11.10;84.90;;;;;;5014820;28;19913;-76
2022/12/24 10:12:41;;;;;;;;;;;11.00;85.20;;;;;;5004941;28;19936;-77
2022/12/24 10:15:12;;;;;;;;;;;11.00;85.20;;;;;;5041096;28;19921;-77
2022/12/24 10:17:56;;;;;;;;;;;11.00;85.30;;;;;;5012472;28;19913;-77
2022/12/24 10:20:25;;;;;;;;;;;11.00;85.30;;;;;;5044375;28;19963;-77
2022/12/24 10:22:54;;;;;;;;;;;11.00;85.10;;;;;;5027977;28;19913;-76
2022/12/24 10:25:22;;;;;;;;;;;11.10;85.20;;;;;;5008192;28;19928;-76
2022/12/24 10:27:48;;;;;;;;;;;11.20;85.10;;;;;;5021563;28;20403;-76
2022/12/24 10:30:13;;;;;;;;;;;11.30;84.80;;;;;;5011545;28;19920;-76
2022/12/24 10:32:40;;;;;;;;;;;11.30;84.10;;;;;;5027881;28;19920;-77
2022/12/24 10:35:15;;;;;;;;;;;11.20;84.70;;;;;;5014075;28;19920;-76
2022/12/24 10:37:46;;;;;;;;;;;11.20;84.30;;;;;;5013538;28;19956;-77
2022/12/24 10:40:32;;;;;;;;;;;11.30;84.50;;;;;;5027763;28;19940;-76
2022/12/24 10:42:57;;;;;;;;;;;11.40;84.40;;;;;;5016082;28;20190;-77
2022/12/24 10:45:24;;;;;;;;;;;11.60;84.20;;;;;;5027593;28;19917;-77
2022/12/24 10:47:53;;;;;;;;;;;11.70;83.50;;;;;;5024056;28;20265;-77
2022/12/24 10:50:34;;;;;;;;;;;11.90;83.00;;;;;;5036651;28;20376;-77
2022/12/24 10:53:05;;;;;;;;;;;12.00;83.00;;;;;;5005918;28;19913;-75
2022/12/24 10:55:31;;;;;;;;;;;12.10;82.30;;;;;;5025714;28;19991;-76
2022/12/24 10:58:11;;;;;;;;;;;12.00;82.30;;;;;;5034766;28;20011;-77
2022/12/24 11:00:37;;;;;;;;;;;11.90;82.50;;;;;;5020234;28;19913;-77
2022/12/24 11:03:12;;;;;;;;;;;11.80;82.50;;;;;;5035478;28;20435;-77
2022/12/24 11:05:38;;;;;;;;;;;11.70;83.00;;;;;;5032755;28;19917;-76
2022/12/24 11:08:05;;;;;;;;;;;11.60;83.20;;;;;;5024074;28;20387;-76
2022/12/24 11:10:39;;;;;;;;;;;11.60;83.00;;;;;;5023433;28;19929;-76
2022/12/24 11:13:04;;;;;;;;;;;11.60;83.20;;;;;;5015415;28;19913;-75
2022/12/24 11:15:33;;;;;;;;;;;11.50;82.90;;;;;;5029627;28;19915;-77
2022/12/24 11:17:58;;;;;;;;;;;11.50;83.00;;;;;;5030727;28;20315;-78
2022/12/24 11:20:28;;;;;;;;;;;11.40;83.30;;;;;;5017584;28;20019;-77
2022/12/24 11:22:54;;;;;;;;;;;11.40;83.30;;;;;;5014051;28;19936;-76
2022/12/24 11:25:27;;;;;;;;;;;11.40;83.30;;;;;;5029837;28;20381;-76
2022/12/24 11:27:54;;;;;;;;;;;11.30;83.60;;;;;;5030272;28;19913;-76
2022/12/24 11:30:20;;;;;;;;;;;11.30;83.70;;;;;;5033455;28;20274;-77
2022/12/24 11:32:47;;;;;;;;;;;11.40;83.80;;;;;;5011560;28;20495;-76
2022/12/24 11:35:16;;;;;;;;;;;11.40;83.50;;;;;;5020964;28;20300;-77
2022/12/24 11:37:41;;;;;;;;;;;11.30;83.50;;;;;;5015529;28;19919;-78
2022/12/24 11:40:17;;;;;;;;;;;11.30;83.50;;;;;;5031634;28;20292;-76
2022/12/24 11:42:43;;;;;;;;;;;11.20;83.80;;;;;;5015126;28;19914;-76
2022/12/24 11:45:22;;;;;;;;;;;11.20;84.00;;;;;;5015589;28;19920;-76
2022/12/24 11:47:47;;;;;;;;;;;11.20;84.20;;;;;;5036867;28;20007;-77
2022/12/24 11:50:19;;;;;;;;;;;11.10;84.30;;;;;;5015178;28;20354;-76
2022/12/24 11:52:46;;;;;;;;;;;11.30;83.90;;;;;;5031360;28;19928;-76
2022/12/24 11:55:15;;;;;;;;;;;11.30;84.10;;;;;;5013155;28;19967;-75
2022/12/24 11:58:02;;;;;;;;;;;11.30;83.90;;;;;;5028615;28;19913;-76
2022/12/24 12:00:27;;;;;;;;;;;11.50;83.70;;;;;;5022101;28;19915;-77
2022/12/24 12:02:55;;;;;;;;;;;11.50;83.10;;;;;;5031715;28;19913;-76
2022/12/24 12:05:23;;;;;;;;;;;11.50;83.30;;;;;;5033337;28;19917;-76
2022/12/24 12:07:54;;;;;;;;;;;11.50;83.10;;;;;;5013038;28;19913;-76
2022/12/24 12:10:22;;;;;;;;;;;11.60;82.00;;;;;;5026904;28;19943;-76
2022/12/24 12:12:58;;;;;;;;;;;11.60;82.30;;;;;;5044870;28;19924;-76
2022/12/24 12:15:25;;;;;;;;;;;11.60;82.10;;;;;;5022527;28;19935;-76
2022/12/24 12:18:10;;;;;;;;;;;11.60;81.80;;;;;;5029500;28;20331;-77
2022/12/24 12:20:35;;;;;;;;;;;11.60;82.00;;;;;;5006978;28;20395;-77
2022/12/24 12:23:04;;;;;;;;;;;11.50;82.20;;;;;;5032164;28;19914;-77
2022/12/24 12:25:44;;;;;;;;;;;11.40;82.20;;;;;;5015490;28;19909;-75
2022/12/24 12:28:17;;;;;;;;;;;11.40;82.50;;;;;;5029332;28;19948;-76
2022/12/24 12:30:43;;;;;;;;;;;11.40;82.50;;;;;;5023264;28;19972;-76
2022/12/24 12:33:15;;;;;;;;;;;11.40;82.60;;;;;;5030977;28;19914;-76
2022/12/24 12:35:42;;;;;;;;;;;11.50;82.40;;;;;;5031865;28;20388;-77
2022/12/24 12:38:34;;;;;;;;;;;11.40;82.40;;;;;;5013049;28;19975;-76
2022/12/24 12:41:22;;;;;;;;;;;11.30;82.40;;;;;;5009983;28;19921;-76
2022/12/24 12:43:57;;;;;;;;;;;11.40;82.10;;;;;;5023209;28;20282;-76
2022/12/24 12:46:30;;;;;;;;;;;11.30;82.60;;;;;;5044299;28;19925;-76
2022/12/24 12:48:56;;;;;;;;;;;11.30;81.90;;;;;;5021412;28;20012;-75
2022/12/24 12:51:27;;;;;;;;;;;11.30;81.70;;;;;;5028359;28;20377;-76
2022/12/24 12:54:11;;;;;;;;;;;11.20;82.00;;;;;;5014774;28;20008;-76
2022/12/24 12:56:38;;;;;;;;;;;11.20;82.60;;;;;;5026078;28;19960;-76
2022/12/24 12:59:07;;;;;;;;;;;11.20;82.60;;;;;;5014588;28;19913;-77
2022/12/24 13:01:35;;;;;;;;;;;11.20;82.00;;;;;;5031784;28;20372;-75
2022/12/24 13:04:06;;;;;;;;;;;11.30;82.40;;;;;;5021588;28;19921;-76
2022/12/24 13:06:40;;;;;;;;;;;11.40;81.60;;;;;;5033960;28;19913;-76
2022/12/24 13:09:09;;;;;;;;;;;11.50;81.10;;;;;;5030515;28;19924;-76
2022/12/24 13:11:37;;;;;;;;;;;11.60;80.90;;;;;;5027550;28;19913;-76
2022/12/24 13:14:11;;;;;;;;;;;11.60;80.50;;;;;;5032759;28;19913;-76
2022/12/24 13:16:55;;;;;;;;;;;11.60;80.60;;;;;;5006873;28;19979;-76
2022/12/24 13:19:32;;;;;;;;;;;11.60;80.60;;;;;;5028926;28;19952;-76
2022/12/24 13:21:57;;;;;;;;;;;11.60;80.80;;;;;;5045796;28;19916;-77
2022/12/24 13:24:24;;;;;;;;;;;11.60;80.60;;;;;;5022531;28;20339;-76
2022/12/24 13:27:05;;;;;;;;;;;11.60;80.60;;;;;;5008576;28;20403;-76
2022/12/24 13:29:39;;;;;;;;;;;11.60;80.50;;;;;;5030445;28;19920;-76
2022/12/24 13:32:20;;;;;;;;;;;11.60;80.50;;;;;;5028712;28;19913;-75
2022/12/24 13:34:47;;;;;;;;;;;11.60;80.10;;;;;;5032960;28;19924;-82
2022/12/24 13:37:20;;;;;;;;;;;11.60;80.30;;;;;;5038106;28;21116;-83
2022/12/24 13:40:04;;;;;;;;;;;11.60;81.00;;;;;;5013743;28;20378;-81
2022/12/24 13:42:53;;;;;;;;;;;11.60;80.50;;;;;;5009559;28;19913;-78
2022/12/24 13:45:28;;;;;;;;;;;11.50;80.40;;;;;;5007502;28;20012;-78
2022/12/24 13:47:54;;;;;;;;;;;11.50;80.50;;;;;;5008430;28;19920;-77
2022/12/24 13:50:23;;;;;;;;;;;11.30;81.00;;;;;;5030394;28;19917;-77
2022/12/24 13:52:50;;;;;;;;;;;11.30;81.50;;;;;;5027373;28;19917;-78
2022/12/24 13:55:16;;;;;;;;;;;11.20;80.70;;;;;;5027372;28;20327;-78
2022/12/24 13:58:01;;;;;;;;;;;11.20;80.90;;;;;;5030816;28;19912;-78
2022/12/24 14:00:42;;;;;;;;;;;11.10;81.20;;;;;;5028669;28;19937;-79
2022/12/24 14:03:11;;;;;;;;;;;11.10;80.90;;;;;;5051267;22;19956;-83
2022/12/24 14:05:36;;;;;;;;;;;11.00;81.10;;;;;;5009960;28;20012;-81
2022/12/24 14:08:04;;;;;;;;;;;11.10;81.70;;;;;;5006357;28;19997;-81
2022/12/24 14:10:30;;;;;;;;;;;11.10;81.10;;;;;;5007036;28;19975;-81
2022/12/24 14:12:56;;;;;;;;;;;11.10;81.20;;;;;;5010007;28;19913;-81
2022/12/24 14:15:40;;;;;;;;;;;11.00;81.60;;;;;;5008354;28;19972;-80
2022/12/24 14:18:06;;;;;;;;;;;11.00;81.20;;;;;;5013598;28;19920;-80
2022/12/24 14:20:31;;;;;;;;;;;11.00;81.80;;;;;;5012277;28;20982;-81
2022/12/24 14:22:57;;;;;;;;;;;11.00;81.80;;;;;;5011281;28;20505;-81
2022/12/24 14:25:22;;;;;;;;;;;11.00;81.70;;;;;;5010825;28;19914;-82
2022/12/24 14:27:54;;;;;;;;;;;11.00;81.60;;;;;;5014136;28;19915;-81
2022/12/24 14:30:19;;;;;;;;;;;11.00;81.50;;;;;;4993385;28;19925;-81
2022/12/24 14:32:45;;;;;;;;;;;11.00;81.70;;;;;;5014806;28;19917;-80